Time;durP1;ratioP1;P1;durP2;ratioP2;P2;SDS_P1;SDS_P2;PMS_P1;PMS_P2;Temp;Humidity;BMP_temperature;BMP_pressure;BME280_temperature;BME280_humidity;BME280_pressure;Samples;Min_cycle;Max_cycle;Signal;HPM_P1;HPM_P2
2021/12/24 00:00:38;;;;;;;8.05;6.20;;;22.40;41.30;;;;;;5012493;28;20041;-60
2021/12/24 00:03:04;;;;;;;6.68;6.03;;;22.40;41.40;;;;;;5013509;28;20046;-60
2021/12/24 00:05:31;;;;;;;7.20;6.25;;;22.30;41.40;;;;;;5013150;28;30718;-60
2021/12/24 00:07:58;;;;;;;8.00;6.05;;;22.30;41.40;;;;;;5013440;28;20104;-60
2021/12/24 00:10:24;;;;;;;8.85;5.97;;;22.30;41.40;;;;;;5015040;28;20048;-60
2021/12/24 00:12:55;;;;;;;10.55;5.72;;;22.30;41.50;;;;;;5013217;28;20033;-60
2021/12/24 00:17:49;;;;;;;7.18;5.60;;;22.30;41.50;;;;;;5013089;28;20056;-60
2021/12/24 00:21:10;;;;;;;6.38;5.78;;;22.30;41.60;;;;;;5010824;28;31490;-60
2021/12/24 00:35:04;;;;;;;8.43;5.90;;;22.20;41.50;;;;;;5012329;28;20118;-60
2021/12/24 00:36:57;;;;;;;6.35;5.00;;;22.10;41.70;;;;;;5010615;28;20045;-60
2021/12/24 00:39:23;;;;;;;9.55;5.80;;;22.10;41.80;;;;;;5014028;28;20041;-60
2021/12/24 00:41:48;;;;;;;9.70;5.75;;;22.10;41.80;;;;;;5012515;28;20045;-60
2021/12/24 00:44:14;;;;;;;15.38;6.85;;;22.10;41.90;;;;;;5012065;28;20037;-60
2021/12/24 00:46:39;;;;;;;11.00;4.90;;;22.10;42.10;;;;;;5009830;28;28658;-60
2021/12/24 00:49:05;;;;;;;6.32;5.15;;;22.10;41.90;;;;;;5009566;28;20045;-60
2021/12/24 00:56:59;;;;;;;8.13;5.57;;;22.00;41.90;;;;;;5013325;28;20547;-60
2021/12/24 00:59:25;;;;;;;9.30;5.35;;;22.00;41.90;;;;;;5011075;28;20048;-60
2021/12/24 01:01:50;;;;;;;15.80;5.80;;;22.00;41.90;;;;;;5010706;28;26472;-59
2021/12/24 01:04:16;;;;;;;16.85;4.97;;;22.00;41.90;;;;;;5013676;28;20053;-60
2021/12/24 01:06:43;;;;;;;14.13;5.43;;;21.90;42.00;;;;;;5013429;28;20461;-60
2021/12/24 01:09:08;;;;;;;8.63;4.95;;;21.90;42.00;;;;;;5046581;28;20033;-60
2021/12/24 01:11:34;;;;;;;11.38;5.50;;;21.90;42.00;;;;;;5015075;28;20156;-60
2021/12/24 01:14:00;;;;;;;16.27;5.00;;;21.90;42.00;;;;;;5018813;28;20059;-60
2021/12/24 01:16:43;;;;;;;6.68;4.32;;;21.90;42.10;;;;;;5012730;28;30511;-59
2021/12/24 01:19:15;;;;;;;11.45;4.40;;;21.90;42.10;;;;;;5017309;28;20041;-60
2021/12/24 01:22:02;;;;;;;8.68;4.32;;;21.80;42.10;;;;;;5016720;28;20411;-60
2021/12/24 01:24:36;;;;;;;13.30;4.65;;;21.80;42.20;;;;;;5014762;28;20483;-60
2021/12/24 01:30:03;;;;;;;9.40;4.03;;;21.80;42.20;;;;;;4997886;28;20835;-59
2021/12/24 01:38:09;;;;;;;8.02;4.25;;;21.70;42.30;;;;;;5017847;28;20052;-60
2021/12/24 01:40:51;;;;;;;7.93;4.15;;;21.70;42.30;;;;;;5018049;28;20791;-59
2021/12/24 01:43:17;;;;;;;9.20;4.13;;;21.70;42.40;;;;;;5014909;28;36431;-61
2021/12/24 01:45:47;;;;;;;12.40;4.53;;;21.70;42.50;;;;;;5017863;28;20041;-60
2021/12/24 01:48:13;;;;;;;7.40;3.20;;;21.70;42.50;;;;;;5014416;28;20096;-59
2021/12/24 01:50:42;;;;;;;10.93;3.35;;;21.70;42.50;;;;;;5019179;28;20729;-60
2021/12/24 01:53:08;;;;;;;6.20;3.80;;;21.60;42.50;;;;;;5016366;28;21733;-60
2021/12/24 01:55:35;;;;;;;7.53;3.40;;;21.70;42.60;;;;;;5016026;28;20045;-60
2021/12/24 01:58:01;;;;;;;6.85;3.53;;;21.60;42.60;;;;;;5014132;28;35798;-60
2021/12/24 02:00:30;;;;;;;4.22;3.10;;;21.60;42.60;;;;;;5014503;28;20037;-60
2021/12/24 02:02:57;;;;;;;4.97;3.05;;;21.60;42.50;;;;;;5013999;28;20042;-60
2021/12/24 02:05:23;;;;;;;3.95;2.95;;;21.60;42.70;;;;;;5015210;28;20473;-60
2021/12/24 02:07:49;;;;;;;5.70;3.15;;;21.60;42.70;;;;;;5016354;28;20137;-60
2021/12/24 02:10:18;;;;;;;8.15;3.50;;;21.60;42.60;;;;;;5017243;28;20497;-60
2021/12/24 02:12:44;;;;;;;5.60;2.85;;;21.60;42.70;;;;;;5028562;28;28060;-60
2021/12/24 02:15:22;;;;;;;3.55;2.90;;;21.50;42.70;;;;;;5013322;28;20076;-60
2021/12/24 02:28:41;;;;;;;3.85;2.60;;;21.50;42.90;;;;;;5014923;28;20049;-60
2021/12/24 02:31:12;;;;;;;5.38;2.45;;;21.50;42.90;;;;;;5016553;28;20416;-60
2021/12/24 02:33:39;;;;;;;3.35;2.50;;;21.50;42.90;;;;;;5014286;28;20134;-60
2021/12/24 02:36:06;;;;;;;5.43;2.85;;;21.50;43.00;;;;;;5016123;28;20060;-60
2021/12/24 02:38:32;;;;;;;2.92;2.50;;;21.50;43.00;;;;;;5016304;28;20095;-60
2021/12/24 02:40:59;;;;;;;2.92;2.33;;;21.40;43.00;;;;;;5014897;28;31414;-60
2021/12/24 02:43:25;;;;;;;4.72;2.55;;;21.40;43.00;;;;;;5015704;28;20033;-60
2021/12/24 02:45:55;;;;;;;3.08;2.45;;;21.40;43.10;;;;;;5015162;28;20037;-60
2021/12/24 02:54:01;;;;;;;2.17;1.92;;;21.40;43.10;;;;;;5012199;28;30696;-60
2021/12/24 02:56:35;;;;;;;2.55;2.10;;;21.40;43.20;;;;;;5014613;28;20045;-60
2021/12/24 02:59:06;;;;;;;3.08;1.70;;;21.40;43.30;;;;;;5013108;28;20029;-60
2021/12/24 03:01:34;;;;;;;;;;;21.30;43.30;;;;;;5012294;28;20053;-60
2021/12/24 03:04:00;;;;;;;2.70;1.80;;;21.30;43.30;;;;;;5010931;28;19925;-60
2021/12/24 03:06:29;;;;;;;1.70;1.60;;;21.30;43.40;;;;;;5011812;28;20515;-60
2021/12/24 03:08:55;;;;;;;1.70;1.60;;;21.30;43.40;;;;;;5012809;28;23833;-59
2021/12/24 03:11:21;;;;;;;2.20;1.80;;;21.30;43.50;;;;;;5012307;28;20041;-60
2021/12/24 03:13:48;;;;;;;1.85;1.70;;;21.30;43.50;;;;;;5015192;28;20168;-60
2021/12/24 03:16:14;;;;;;;1.67;1.58;;;21.30;43.50;;;;;;5011346;28;20042;-60
2021/12/24 03:18:42;;;;;;;3.03;1.63;;;21.30;43.60;;;;;;5014618;28;20096;-60
2021/12/24 03:21:22;;;;;;;1.85;1.75;;;21.30;43.60;;;;;;5010238;28;20117;-60
2021/12/24 03:26:47;;;;;;;1.60;1.50;;;21.20;43.60;;;;;;5011005;28;20413;-60
2021/12/24 03:29:14;;;;;;;2.08;1.67;;;21.30;43.70;;;;;;5021366;28;20096;-61
2021/12/24 03:31:41;;;;;;;2.17;1.33;;;21.20;43.70;;;;;;5016643;28;20045;-60
2021/12/24 03:34:09;;;;;;;1.60;1.50;;;21.20;43.70;;;;;;5013378;28;20471;-60
2021/12/24 03:36:35;;;;;;;1.52;1.38;;;21.20;43.70;;;;;;5011811;28;33406;-60
2021/12/24 03:39:01;;;;;;;1.52;1.20;;;21.20;43.70;;;;;;5016472;28;20044;-60
2021/12/24 03:41:27;;;;;;;1.55;1.40;;;21.20;43.80;;;;;;5015572;28;20061;-60
2021/12/24 03:43:53;;;;;;;1.65;1.55;;;21.20;43.80;;;;;;5011667;28;20127;-60
2021/12/24 03:46:26;;;;;;;1.70;1.60;;;21.20;43.80;;;;;;5016574;28;20037;-60
2021/12/24 03:48:57;;;;;;;1.63;1.48;;;21.20;43.90;;;;;;5012071;28;20041;-59
2021/12/24 03:56:44;;;;;;;1.50;1.40;;;21.20;44.10;;;;;;5008814;28;20149;-59
2021/12/24 03:59:10;;;;;;;2.33;1.50;;;21.10;44.00;;;;;;5015666;28;20064;-59
2021/12/24 04:01:37;;;;;;;2.22;1.80;;;21.10;44.00;;;;;;5012507;28;20077;-60
2021/12/24 04:04:04;;;;;;;2.03;1.88;;;21.10;44.10;;;;;;5011278;28;27993;-61
2021/12/24 04:06:30;;;;;;;1.65;1.55;;;21.10;44.10;;;;;;5013378;28;20045;-59
2021/12/24 04:08:56;;;;;;;2.08;1.90;;;21.10;44.10;;;;;;5014203;28;20039;-60
2021/12/24 04:11:22;;;;;;;2.10;2.00;;;21.10;44.20;;;;;;5013056;28;20073;-60
2021/12/24 04:13:48;;;;;;;1.92;1.83;;;21.10;44.20;;;;;;5014584;28;20088;-60
2021/12/24 04:16:14;;;;;;;2.20;1.98;;;21.10;44.30;;;;;;5044264;28;20046;-61
2021/12/24 04:26:43;;;;;;;3.03;2.38;;;21.00;44.40;;;;;;5013517;28;20041;-61
2021/12/24 04:29:09;;;;;;;3.35;2.35;;;21.00;44.50;;;;;;5013459;28;20067;-60
2021/12/24 04:31:45;;;;;;;2.80;2.45;;;21.00;44.40;;;;;;5014909;28;20033;-60
2021/12/24 04:34:13;;;;;;;2.83;2.63;;;21.00;44.50;;;;;;5014955;28;20037;-60
2021/12/24 04:39:39;;;;;;;2.45;2.25;;;21.00;44.60;;;;;;5013958;28;20141;-60
2021/12/24 05:01:41;;;;;;;4.35;2.78;;;20.90;44.70;;;;;;5003145;28;30803;-60
2021/12/24 05:04:09;;;;;;;3.42;2.70;;;20.90;44.80;;;;;;5018787;28;20049;-60
2021/12/24 05:06:41;;;;;;;4.88;3.08;;;20.90;44.80;;;;;;5015286;28;20044;-60
2021/12/24 05:09:11;;;;;;;4.07;2.55;;;20.90;44.80;;;;;;5021292;28;20053;-60
2021/12/24 05:11:37;;;;;;;3.70;2.70;;;20.90;44.80;;;;;;5017591;28;20136;-60
2021/12/24 05:14:04;;;;;;;2.97;2.67;;;20.90;44.90;;;;;;5018693;28;20054;-61
2021/12/24 05:21:50;;;;;;;6.40;3.00;;;20.80;44.90;;;;;;5018958;28;20052;-61
2021/12/24 05:24:21;;;;;;;4.50;2.95;;;20.80;44.90;;;;;;5019506;28;20033;-61
2021/12/24 05:26:50;;;;;;;5.00;2.58;;;20.80;45.00;;;;;;5019821;28;20052;-60
2021/12/24 05:29:16;;;;;;;3.58;2.20;;;20.90;45.20;;;;;;5015424;28;33666;-60
2021/12/24 05:31:43;;;;;;;6.35;2.75;;;20.90;45.30;;;;;;5020218;28;20963;-60
2021/12/24 05:34:10;;;;;;;4.28;2.58;;;20.80;45.20;;;;;;5019150;28;20474;-60
2021/12/24 05:36:36;;;;;;;5.10;2.03;;;20.80;45.30;;;;;;5019285;28;20050;-60
2021/12/24 05:39:03;;;;;;;5.97;2.80;;;20.80;45.40;;;;;;5021455;28;20042;-60
2021/12/24 05:41:28;;;;;;;3.95;2.40;;;20.80;45.40;;;;;;5017508;28;20029;-60
2021/12/24 05:43:54;;;;;;;4.05;2.30;;;20.80;45.50;;;;;;5019113;28;30521;-60
2021/12/24 05:46:19;;;;;;;5.25;2.80;;;20.80;45.50;;;;;;5020033;28;20424;-60
2021/12/24 05:48:45;;;;;;;3.53;2.53;;;20.80;45.60;;;;;;5019069;28;20237;-60
2021/12/24 05:51:11;;;;;;;3.58;2.22;;;20.80;45.60;;;;;;5019576;28;20068;-58
2021/12/24 05:53:38;;;;;;;3.42;1.83;;;20.80;45.60;;;;;;5015591;28;20041;-60
2021/12/24 05:56:04;;;;;;;4.72;2.25;;;20.80;45.70;;;;;;5016118;28;20665;-62
2021/12/24 05:58:30;;;;;;;5.18;2.35;;;20.80;45.80;;;;;;5015955;28;20374;-60
2021/12/24 06:00:56;;;;;;;4.80;2.60;;;20.80;45.80;;;;;;5015724;28;20040;-62
2021/12/24 06:03:22;;;;;;;4.45;2.20;;;20.80;45.80;;;;;;5015802;28;20060;-60
2021/12/24 06:05:48;;;;;;;3.65;2.28;;;20.80;45.80;;;;;;5027222;28;20038;-60
2021/12/24 06:08:13;;;;;;;4.35;2.55;;;20.80;45.80;;;;;;5017230;28;20561;-60
2021/12/24 06:10:39;;;;;;;4.03;2.38;;;20.80;45.90;;;;;;5013490;28;25916;-60
2021/12/24 06:13:05;;;;;;;4.53;2.20;;;20.80;46.00;;;;;;5015500;28;20041;-60
2021/12/24 06:15:41;;;;;;;3.70;2.20;;;20.80;46.00;;;;;;5014878;28;20061;-60
2021/12/24 06:18:12;;;;;;;5.47;2.22;;;20.80;46.00;;;;;;5018387;28;20607;-59
2021/12/24 06:20:39;;;;;;;5.13;2.22;;;20.80;46.10;;;;;;5016468;28;20046;-60
2021/12/24 06:23:07;;;;;;;5.25;2.58;;;20.80;46.10;;;;;;5016831;28;20045;-59
2021/12/24 06:25:33;;;;;;;4.60;2.28;;;20.80;46.10;;;;;;5015559;28;23114;-61
2021/12/24 06:27:58;;;;;;;6.25;2.63;;;20.80;46.00;;;;;;5017640;28;20696;-61
2021/12/24 06:30:29;;;;;;;4.10;2.38;;;20.80;46.00;;;;;;5016234;28;20622;-61
2021/12/24 06:32:55;;;;;;;10.85;2.88;;;20.80;46.20;;;;;;5014689;28;20049;-60
2021/12/24 06:35:20;;;;;;;10.75;3.17;;;20.80;46.40;;;;;;5014780;28;20052;-60
2021/12/24 06:37:46;;;;;;;7.40;2.58;;;20.80;46.50;;;;;;5015702;28;20049;-60
2021/12/24 06:40:12;;;;;;;6.97;2.50;;;20.80;46.50;;;;;;5014327;28;32988;-60
2021/12/24 06:42:37;;;;;;;4.68;2.45;;;20.80;46.50;;;;;;5022495;28;20041;-60
2021/12/24 06:45:04;;;;;;;5.72;2.22;;;20.80;46.60;;;;;;5020404;28;20059;-60
2021/12/24 06:47:29;;;;;;;5.25;2.25;;;20.80;46.60;;;;;;5045926;28;20122;-60
2021/12/24 06:49:55;;;;;;;7.28;2.80;;;20.80;46.70;;;;;;5016846;28;20523;-61
2021/12/24 06:52:20;;;;;;;7.32;2.70;;;20.90;46.80;;;;;;5015726;28;35864;-60
2021/12/24 06:54:46;;;;;;;7.65;2.25;;;20.90;46.80;;;;;;5017262;28;20060;-60
2021/12/24 06:57:15;;;;;;;3.88;2.00;;;20.90;46.80;;;;;;5018148;28;20555;-60
2021/12/24 06:59:41;;;;;;;4.38;1.70;;;20.90;46.70;;;;;;5016668;28;20088;-60
2021/12/24 07:02:08;;;;;;;7.68;2.85;;;20.90;46.70;;;;;;5015023;28;20049;-60
2021/12/24 07:04:33;;;;;;;5.68;2.15;;;20.90;46.80;;;;;;5014460;28;20512;-60
2021/12/24 07:06:59;;;;;;;5.35;2.20;;;20.90;46.80;;;;;;5014058;28;30638;-60
2021/12/24 07:09:24;;;;;;;5.57;2.40;;;20.90;46.80;;;;;;5013485;28;21458;-60
2021/12/24 07:11:50;;;;;;;4.78;1.92;;;20.90;46.80;;;;;;5014448;28;20071;-60
2021/12/24 07:14:15;;;;;;;5.32;2.00;;;20.90;46.80;;;;;;5017850;28;20908;-60
2021/12/24 07:16:41;;;;;;;4.22;2.05;;;20.90;46.80;;;;;;5015465;28;20530;-59
2021/12/24 07:19:07;;;;;;;4.05;1.92;;;20.90;46.70;;;;;;5016438;28;20037;-58
2021/12/24 07:21:35;;;;;;;6.20;1.90;;;20.90;46.70;;;;;;5010020;28;20712;-60
2021/12/24 07:24:02;;;;;;;4.70;1.63;;;20.90;46.70;;;;;;5019358;28;20160;-59
2021/12/24 07:26:27;;;;;;;4.53;1.88;;;20.90;46.60;;;;;;5012025;28;20041;-58
2021/12/24 07:28:53;;;;;;;5.75;1.95;;;20.90;46.60;;;;;;5044796;28;20040;-60
2021/12/24 07:31:18;;;;;;;6.18;2.20;;;20.90;46.60;;;;;;5009321;28;20041;-60
2021/12/24 07:33:44;;;;;;;4.35;1.80;;;20.90;46.50;;;;;;5013057;28;20052;-60
2021/12/24 07:36:09;;;;;;;6.47;1.80;;;20.90;46.60;;;;;;5010165;28;28085;-59
2021/12/24 07:38:35;;;;;;;5.78;1.88;;;20.90;46.60;;;;;;5014479;28;20088;-60
2021/12/24 07:41:01;;;;;;;5.18;2.22;;;20.90;46.50;;;;;;5016859;28;20037;-59
2021/12/24 07:43:26;;;;;;;5.32;2.20;;;21.00;46.50;;;;;;5012195;28;20426;-60
2021/12/24 07:45:54;;;;;;;6.72;2.00;;;21.00;46.50;;;;;;5014453;28;20040;-60
2021/12/24 07:48:28;;;;;;;3.95;1.88;;;21.00;46.50;;;;;;5016595;28;20041;-59
2021/12/24 07:53:21;;;;;;;4.60;1.90;;;21.00;46.50;;;;;;5013587;28;20045;-60
2021/12/24 07:55:47;;;;;;;5.18;1.88;;;21.00;46.50;;;;;;5010934;28;20077;-59
2021/12/24 07:58:14;;;;;;;3.65;1.80;;;21.00;46.40;;;;;;5014955;28;20068;-60
2021/12/24 08:00:41;;;;;;;3.78;1.60;;;21.00;46.30;;;;;;5015161;28;20060;-60
2021/12/24 08:03:07;;;;;;;4.20;1.55;;;21.00;46.30;;;;;;5011969;28;25538;-58
2021/12/24 08:05:35;;;;;;;6.82;1.95;;;21.00;46.40;;;;;;5013853;28;20146;-58
2021/12/24 08:08:01;;;;;;;5.60;2.10;;;21.00;46.30;;;;;;5011090;28;20088;-60
2021/12/24 08:10:27;;;;;;;5.85;1.90;;;21.00;46.30;;;;;;5012523;28;20106;-60
2021/12/24 08:12:53;;;;;;;4.45;1.75;;;21.00;46.30;;;;;;5015576;28;20404;-60
2021/12/24 08:15:19;;;;;;;4.35;1.60;;;21.00;46.30;;;;;;5014778;28;20053;-59
2021/12/24 08:17:46;;;;;;;4.07;1.63;;;21.00;46.20;;;;;;5011039;28;23901;-60
2021/12/24 08:20:13;;;;;;;5.35;2.08;;;21.00;46.30;;;;;;5016354;28;20037;-60
2021/12/24 08:22:39;;;;;;;3.92;1.77;;;21.00;46.20;;;;;;5025869;28;20095;-60
2021/12/24 08:25:06;;;;;;;4.13;2.03;;;21.10;46.30;;;;;;5011607;28;20052;-60
2021/12/24 08:27:33;;;;;;;4.32;2.17;;;21.10;46.20;;;;;;5015189;28;20033;-60
2021/12/24 08:29:59;;;;;;;5.28;1.67;;;21.10;46.30;;;;;;5012614;28;20037;-59
2021/12/24 08:32:25;;;;;;;7.78;2.17;;;21.10;46.30;;;;;;5013586;28;30443;-59
2021/12/24 08:34:52;;;;;;;6.38;2.10;;;21.00;46.20;;;;;;5014357;28;20033;-59
2021/12/24 08:37:18;;;;;;;4.82;2.13;;;21.00;46.20;;;;;;5011375;28;20048;-60
2021/12/24 08:39:44;;;;;;;5.38;2.13;;;21.00;46.20;;;;;;5016689;28;20124;-59
2021/12/24 08:42:10;;;;;;;6.15;2.35;;;21.10;46.20;;;;;;5012938;28;20547;-58
2021/12/24 08:44:37;;;;;;;4.03;1.40;;;21.10;46.10;;;;;;5012311;28;20072;-59
2021/12/24 08:47:04;;;;;;;3.17;1.63;;;21.10;46.20;;;;;;5012110;28;30659;-59
2021/12/24 08:49:31;;;;;;;5.15;1.98;;;21.10;46.20;;;;;;5013286;28;20037;-59
2021/12/24 08:51:57;;;;;;;6.57;2.33;;;21.10;46.20;;;;;;5013525;28;20050;-59
2021/12/24 08:54:24;;;;;;;5.57;1.95;;;21.10;46.20;;;;;;5024300;28;20064;-59
2021/12/24 08:56:51;;;;;;;5.40;1.88;;;21.10;46.20;;;;;;5011679;28;20049;-59
2021/12/24 08:59:17;;;;;;;4.70;1.95;;;21.10;46.20;;;;;;5011003;28;35717;-58
2021/12/24 09:01:43;;;;;;;6.90;2.25;;;21.10;46.20;;;;;;5011702;28;20057;-60
2021/12/24 09:04:13;;;;;;;4.45;1.90;;;21.10;46.20;;;;;;5025416;28;20057;-58
2021/12/24 09:06:40;;;;;;;4.73;1.87;;;21.20;46.20;;;;;;5007610;28;20099;-59
2021/12/24 09:09:06;;;;;;;5.78;2.20;;;21.20;47.10;;;;;;5012616;28;20073;-59
2021/12/24 09:11:37;;;;;;;4.65;1.90;;;21.20;46.40;;;;;;5008903;28;20099;-59
2021/12/24 09:14:02;;;;;;;7.43;1.85;;;21.10;46.30;;;;;;5006371;28;30848;-59
2021/12/24 09:16:31;;;;;;;5.25;2.00;;;21.20;46.50;;;;;;5011852;28;20061;-60
2021/12/24 09:19:03;;;;;;;5.40;1.88;;;21.20;46.60;;;;;;5011886;28;20088;-59
2021/12/24 09:21:29;;;;;;;5.07;2.00;;;21.20;46.60;;;;;;5010543;28;20069;-58
2021/12/24 09:23:57;;;;;;;6.90;2.08;;;21.20;46.60;;;;;;5008729;28;20463;-59
2021/12/24 09:26:28;;;;;;;4.18;1.90;;;21.20;46.70;;;;;;5011482;28;20144;-59
2021/12/24 09:28:54;;;;;;;4.38;1.98;;;21.20;46.60;;;;;;5009275;28;36131;-59
2021/12/24 09:31:20;;;;;;;5.13;2.15;;;21.20;46.80;;;;;;5012398;28;20046;-57
2021/12/24 09:33:46;;;;;;;5.72;1.85;;;21.20;46.80;;;;;;5028111;28;20048;-60
2021/12/24 09:36:12;;;;;;;5.15;2.45;;;21.20;46.70;;;;;;5012084;28;20703;-59
2021/12/24 09:38:37;;;;;;;5.28;1.95;;;21.30;46.70;;;;;;5015279;28;20056;-59
2021/12/24 09:41:03;;;;;;;3.63;1.65;;;21.30;46.80;;;;;;5008757;28;25750;-60
2021/12/24 09:43:29;;;;;;;6.10;2.28;;;21.30;46.80;;;;;;5011995;28;20124;-59
2021/12/24 09:45:54;;;;;;;6.70;2.00;;;21.30;46.80;;;;;;5015003;28;20543;-59
2021/12/24 09:48:20;;;;;;;7.15;2.20;;;21.30;46.80;;;;;;5015252;28;20056;-59
2021/12/24 09:50:46;;;;;;;6.32;2.10;;;21.30;46.80;;;;;;5013446;28;20053;-59
2021/12/24 09:53:13;;;;;;;6.32;1.92;;;21.30;46.80;;;;;;5011117;28;20060;-59
2021/12/24 09:55:38;;;;;;;7.57;2.05;;;21.30;46.90;;;;;;5012332;28;34059;-59
2021/12/24 09:58:05;;;;;;;5.80;2.35;;;21.30;46.80;;;;;;5013569;28;20045;-60
2021/12/24 10:00:31;;;;;;;5.72;2.35;;;21.30;46.90;;;;;;5016044;28;20091;-59
2021/12/24 10:02:59;;;;;;;7.10;2.10;;;21.30;46.80;;;;;;5032773;28;20443;-59
2021/12/24 10:05:28;;;;;;;8.05;2.38;;;21.40;46.90;;;;;;5015961;28;20041;-58
2021/12/24 10:07:59;;;;;;;5.57;2.20;;;21.40;46.90;;;;;;5014193;28;20041;-60
2021/12/24 10:10:28;;;;;;;5.10;1.85;;;21.40;47.00;;;;;;4992184;28;35790;-59
2021/12/24 10:12:54;;;;;;;6.22;1.98;;;21.40;47.00;;;;;;5015150;28;20045;-59
2021/12/24 10:15:19;;;;;;;5.95;2.17;;;21.40;47.00;;;;;;5015740;28;20519;-60
2021/12/24 10:17:46;;;;;;;5.93;1.90;;;21.40;47.10;;;;;;5026345;28;20050;-59
2021/12/24 10:20:13;;;;;;;5.57;2.50;;;21.40;47.30;;;;;;5016881;28;20037;-59
2021/12/24 10:22:55;;;;;;;5.82;2.28;;;21.40;47.50;;;;;;5043245;28;20196;-59
2021/12/24 10:25:25;;;;;;;5.38;2.00;;;21.40;48.20;;;;;;5012915;28;33086;-59
2021/12/24 10:27:51;;;;;;;4.60;1.90;;;21.40;47.80;;;;;;5016150;28;20053;-58
2021/12/24 10:30:30;;;;;;;4.85;2.20;;;21.40;47.90;;;;;;5018121;28;20060;-59
2021/12/24 10:32:57;;;;;;;6.80;2.17;;;21.50;48.00;;;;;;5016243;28;20057;-58
2021/12/24 10:35:26;;;;;;;5.00;1.88;;;21.50;48.20;;;;;;5015328;28;20040;-58
2021/12/24 10:38:14;;;;;;;6.25;2.42;;;21.50;48.20;;;;;;5029066;28;32081;-59
2021/12/24 10:40:53;;;;;;;4.50;1.75;;;21.50;48.30;;;;;;5010719;28;20477;-59
2021/12/24 10:43:33;;;;;;;5.47;1.67;;;21.50;48.20;;;;;;5014520;28;20385;-60
2021/12/24 10:46:24;;;;;;;6.55;2.15;;;21.50;48.30;;;;;;5016371;28;20077;-64
2021/12/24 10:49:03;;;;;;;7.40;2.05;;;21.50;48.30;;;;;;5013671;28;20087;-64
2021/12/24 10:54:14;;;;;;;8.50;1.83;;;21.50;48.30;;;;;;5014818;28;20112;-59
2021/12/24 10:56:39;;;;;;;4.32;1.77;;;21.50;48.40;;;;;;5013180;28;20045;-59
2021/12/24 10:59:05;;;;;;;6.70;1.90;;;21.50;48.30;;;;;;5017409;28;20038;-59
2021/12/24 11:01:31;;;;;;;5.57;2.05;;;21.50;48.40;;;;;;5016050;28;20057;-60
2021/12/24 11:03:57;;;;;;;5.45;1.98;;;21.60;48.40;;;;;;5016165;28;20049;-59
2021/12/24 11:06:30;;;;;;;4.57;1.90;;;21.60;48.50;;;;;;5042464;28;20048;-58
2021/12/24 11:08:57;;;;;;;5.57;1.80;;;21.60;48.50;;;;;;5017910;28;20041;-59
2021/12/24 11:11:22;;;;;;;6.90;1.88;;;21.60;48.50;;;;;;5016046;28;20123;-59
2021/12/24 11:13:48;;;;;;;6.82;2.10;;;21.60;48.50;;;;;;5016155;28;20065;-60
2021/12/24 11:16:19;;;;;;;4.85;1.50;;;21.60;48.50;;;;;;5013709;28;20606;-59
2021/12/24 11:18:53;;;;;;;3.50;1.67;;;21.60;48.50;;;;;;5014022;28;20045;-60
2021/12/24 11:21:22;;;;;;;7.38;1.95;;;21.60;48.60;;;;;;5015236;28;20047;-60
2021/12/24 11:23:48;;;;;;;6.28;1.73;;;21.60;48.50;;;;;;5016071;28;20452;-60
2021/12/24 11:26:20;;;;;;;9.30;2.40;;;21.70;48.50;;;;;;5013986;28;20532;-59
2021/12/24 11:28:46;;;;;;;4.90;1.90;;;21.70;48.50;;;;;;5014237;28;20085;-59
2021/12/24 11:31:13;;;;;;;7.72;2.53;;;21.70;48.50;;;;;;5014442;28;20080;-59
2021/12/24 11:33:42;;;;;;;6.50;1.98;;;21.70;48.50;;;;;;5010877;28;20442;-59
2021/12/24 11:36:10;;;;;;;5.53;2.30;;;21.70;48.60;;;;;;5012712;28;20096;-58
2021/12/24 11:38:46;;;;;;;6.18;2.40;;;21.70;48.60;;;;;;5026452;28;20059;-60
2021/12/24 11:41:15;;;;;;;5.63;2.20;;;21.70;48.60;;;;;;5017388;28;20045;-58
2021/12/24 11:43:43;;;;;;;7.40;2.60;;;21.70;48.60;;;;;;5015367;28;20034;-59
2021/12/24 11:46:10;;;;;;;5.72;2.17;;;21.70;48.80;;;;;;5011144;28;20467;-59
2021/12/24 11:48:36;;;;;;;7.57;2.20;;;21.70;48.70;;;;;;5010722;28;25796;-59
2021/12/24 11:51:09;;;;;;;8.07;2.50;;;21.70;49.40;;;;;;5014660;28;20520;-60
2021/12/24 11:53:36;;;;;;;7.43;2.40;;;21.70;48.80;;;;;;5010810;28;20059;-59
2021/12/24 11:56:07;;;;;;;8.30;2.40;;;21.80;48.90;;;;;;5013813;28;20136;-59
2021/12/24 11:58:53;;;;;;;7.78;2.25;;;21.80;49.00;;;;;;5013956;28;20533;-59
2021/12/24 12:01:21;;;;;;;7.30;2.50;;;21.80;48.90;;;;;;5011624;28;20073;-59
2021/12/24 12:03:49;;;;;;;8.02;2.17;;;21.80;48.90;;;;;;5017505;28;20572;-58
2021/12/24 12:06:24;;;;;;;8.43;2.00;;;21.80;48.90;;;;;;5014693;28;20411;-59
2021/12/24 12:08:57;;;;;;;4.75;1.88;;;21.80;48.80;;;;;;5016202;28;20038;-59
2021/12/24 12:11:31;;;;;;;8.18;2.30;;;21.80;48.70;;;;;;5011494;28;20046;-58
2021/12/24 12:14:04;;;;;;;8.45;2.33;;;21.80;48.70;;;;;;5013948;28;20128;-57
2021/12/24 12:16:38;;;;;;;4.40;1.70;;;21.80;48.70;;;;;;5007858;28;20108;-60
2021/12/24 12:19:30;;;;;;;4.75;1.90;;;21.80;48.60;;;;;;5012597;28;20041;-60
2021/12/24 12:24:59;;;;;;;5.22;1.70;;;21.80;48.70;;;;;;5013790;28;20042;-60
2021/12/24 12:27:33;;;;;;;6.18;1.80;;;21.80;48.70;;;;;;5014618;28;20037;-59
2021/12/24 12:30:39;;;;;;;5.50;2.00;;;21.80;48.60;;;;;;5012974;28;20443;-59
2021/12/24 12:33:19;;;;;;;6.28;1.88;;;21.80;48.50;;;;;;5010962;28;20052;-60
2021/12/24 12:35:52;;;;;;;4.27;1.70;;;21.80;48.50;;;;;;5010815;28;20109;-59
2021/12/24 12:38:30;;;;;;;4.35;1.83;;;21.80;48.50;;;;;;5013488;28;21045;-60
2021/12/24 12:41:19;;;;;;;4.47;1.70;;;21.80;48.40;;;;;;5012239;28;20049;-60
2021/12/24 12:43:50;;;;;;;4.10;1.60;;;21.80;48.30;;;;;;5014074;28;20508;-59
2021/12/24 12:46:27;;;;;;;5.95;1.80;;;21.80;48.40;;;;;;5015505;28;20080;-58
2021/12/24 12:48:55;;;;;;;4.22;1.50;;;21.80;48.30;;;;;;5010018;28;23826;-60
2021/12/24 12:51:42;;;;;;;5.05;1.70;;;21.80;48.30;;;;;;5012310;28;20532;-59
2021/12/24 12:54:37;;;;;;;5.40;1.58;;;21.80;48.20;;;;;;5011652;28;20045;-59
2021/12/24 12:57:31;;;;;;;3.35;1.30;;;21.90;48.20;;;;;;5011325;28;20064;-59
2021/12/24 13:00:17;;;;;;;5.72;1.50;;;21.80;48.20;;;;;;5015177;28;20079;-59
2021/12/24 13:05:43;;;;;;;4.97;1.60;;;21.80;48.10;;;;;;5019959;28;20088;-59
2021/12/24 13:08:30;;;;;;;5.78;1.33;;;21.80;48.00;;;;;;5018441;28;20050;-60
2021/12/24 13:11:03;;;;;;;2.97;1.17;;;21.90;47.90;;;;;;5020135;28;20424;-59
2021/12/24 13:13:30;;;;;;;2.28;1.25;;;21.80;47.90;;;;;;5017832;28;20056;-59
2021/12/24 13:15:56;;;;;;;3.95;1.40;;;21.80;47.90;;;;;;5016863;28;20049;-59
2021/12/24 13:18:31;;;;;;;3.97;0.90;;;21.90;48.00;;;;;;5014800;28;27971;-58
2021/12/24 13:23:38;;;;;;;4.13;0.98;;;21.90;48.10;;;;;;5017728;28;20500;-60
2021/12/24 13:26:11;;;;;;;;;;;21.80;48.10;;;;;;5016396;28;20493;-59
2021/12/24 13:28:56;;;;;;;4.10;1.55;;;21.90;48.30;;;;;;5014417;28;19924;-58
2021/12/24 13:31:22;;;;;;;2.75;1.40;;;21.80;48.50;;;;;;5011988;28;20041;-57
2021/12/24 13:33:49;;;;;;;6.57;1.30;;;21.90;48.60;;;;;;5014442;28;20528;-58
2021/12/24 13:36:14;;;;;;;2.78;1.10;;;21.90;48.70;;;;;;5016736;28;20369;-59
2021/12/24 13:38:40;;;;;;;3.35;1.35;;;21.90;48.60;;;;;;5017515;28;20124;-59
2021/12/24 13:41:05;;;;;;;4.18;1.02;;;21.90;48.70;;;;;;5016034;28;20038;-59
2021/12/24 13:43:36;;;;;;;7.60;1.30;;;21.90;48.70;;;;;;5018491;28;20060;-59
2021/12/24 13:46:08;;;;;;;6.40;1.92;;;21.90;49.00;;;;;;5016108;28;25552;-59
2021/12/24 13:48:48;;;;;;;8.70;2.65;;;21.90;49.10;;;;;;5017941;28;20053;-59
2021/12/24 13:56:40;;;;;;;11.73;3.45;;;21.90;49.50;;;;;;5013220;28;20140;-60
2021/12/24 13:59:07;;;;;;;11.70;3.37;;;21.90;49.50;;;;;;5012429;28;20034;-59
2021/12/24 14:01:33;;;;;;;8.07;2.78;;;21.90;49.40;;;;;;5016692;28;20283;-60
2021/12/24 14:04:02;;;;;;;12.15;3.10;;;21.80;49.40;;;;;;5015261;28;20506;-59
2021/12/24 14:06:35;;;;;;;8.68;2.80;;;21.80;49.40;;;;;;4999013;28;20043;-59
2021/12/24 14:09:24;;;;;;;17.33;2.60;;;21.80;49.20;;;;;;5012970;28;20550;-59
2021/12/24 14:11:52;;;;;;;7.38;2.38;;;21.90;49.30;;;;;;5014012;28;20462;-58
2021/12/24 14:14:32;;;;;;;9.45;2.80;;;21.90;49.20;;;;;;5015603;28;27455;-59
2021/12/24 14:17:47;;;;;;;7.70;2.53;;;21.90;49.30;;;;;;5016873;28;20061;-63
2021/12/24 14:20:25;;;;;;;6.28;2.83;;;21.80;49.20;;;;;;5017487;28;20387;-59
2021/12/24 14:22:50;;;;;;;8.63;2.35;;;21.80;49.20;;;;;;5017458;28;20384;-59
2021/12/24 14:25:16;;;;;;;8.98;2.45;;;21.80;49.20;;;;;;5014713;28;20049;-59
2021/12/24 14:27:48;;;;;;;9.73;2.53;;;21.80;49.10;;;;;;5016502;28;23455;-58
2021/12/24 14:30:18;;;;;;;7.97;2.28;;;21.80;49.20;;;;;;5007236;28;20076;-59
2021/12/24 14:32:46;;;;;;;8.68;2.40;;;21.80;49.10;;;;;;5014768;28;20041;-58
2021/12/24 14:35:28;;;;;;;7.15;2.40;;;21.80;49.20;;;;;;5012986;28;20164;-59
2021/12/24 14:38:00;;;;;;;4.90;1.92;;;21.80;49.20;;;;;;5013122;28;20034;-58
2021/12/24 14:40:28;;;;;;;6.25;1.80;;;21.80;49.10;;;;;;5015365;28;20038;-58
2021/12/24 14:42:55;;;;;;;7.82;1.83;;;21.80;49.10;;;;;;5011102;28;20033;-59
2021/12/24 14:45:28;;;;;;;5.20;1.75;;;21.80;49.10;;;;;;5011932;28;20030;-59